createdAt,value
2019-05-16T00:00:13.958Z,8.70
2019-05-16T00:02:42.325Z,8.80
2019-05-16T00:05:12.329Z,8.87
2019-05-16T00:07:42.194Z,8.94
2019-05-16T00:10:12.284Z,9.01
2019-05-16T00:12:40.762Z,9.06
2019-05-16T00:15:11.291Z,9.12
2019-05-16T00:17:39.694Z,9.18
2019-05-16T00:20:09.647Z,9.22
2019-05-16T00:22:39.630Z,9.24
2019-05-16T00:25:08.649Z,9.29
2019-05-16T00:27:38.703Z,9.31
2019-05-16T00:30:09.606Z,9.34
2019-05-16T00:32:39.001Z,9.35
2019-05-16T00:35:09.435Z,9.37
2019-05-16T00:37:39.105Z,9.37
2019-05-16T00:40:09.698Z,9.36
2019-05-16T00:42:39.651Z,9.37
2019-05-16T00:45:09.932Z,9.39
2019-05-16T00:47:39.199Z,9.42
2019-05-16T00:50:12.774Z,9.44
2019-05-16T00:52:41.133Z,9.46
2019-05-16T00:55:09.646Z,9.48
2019-05-16T00:57:39.805Z,9.52
2019-05-16T01:00:10.666Z,9.52
2019-05-16T01:02:39.128Z,9.54
2019-05-16T01:05:09.189Z,9.56
2019-05-16T01:07:39.206Z,9.58
2019-05-16T01:10:10.609Z,9.60
2019-05-16T01:12:39.327Z,9.60
2019-05-16T01:15:08.832Z,9.59
2019-05-16T01:17:39.114Z,9.62
2019-05-16T01:20:08.783Z,9.62
2019-05-16T01:22:38.567Z,9.63
2019-05-16T01:25:11.610Z,9.65
2019-05-16T01:27:40.025Z,9.65
2019-05-16T01:30:10.204Z,9.65
2019-05-16T01:32:39.458Z,9.64
2019-05-16T01:35:08.697Z,9.64
2019-05-16T01:37:38.471Z,9.65
2019-05-16T01:40:08.432Z,9.65
2019-05-16T01:42:38.709Z,9.65
2019-05-16T01:45:09.415Z,9.65
2019-05-16T01:47:39.238Z,9.65
2019-05-16T01:50:09.553Z,9.65
2019-05-16T01:52:39.350Z,9.65
2019-05-16T01:55:08.589Z,9.66
2019-05-16T01:57:39.073Z,9.66
2019-05-16T02:00:08.827Z,9.67
2019-05-16T02:02:38.475Z,9.65
2019-05-16T02:05:08.690Z,9.63
2019-05-16T02:07:38.966Z,9.52
2019-05-16T02:10:09.205Z,9.58
2019-05-16T02:12:38.423Z,9.57
2019-05-16T02:15:08.086Z,9.55
2019-05-16T02:17:38.535Z,9.58
2019-05-16T02:20:08.737Z,9.58
2019-05-16T02:22:39.027Z,9.59
2019-05-16T02:25:08.580Z,9.60
2019-05-16T02:27:40.980Z,9.59
2019-05-16T02:30:12.498Z,9.58
2019-05-16T02:32:41.709Z,9.56
2019-05-16T02:35:11.999Z,9.55
2019-05-16T02:37:42.470Z,9.56
2019-05-16T02:40:12.590Z,9.58
2019-05-16T02:42:42.286Z,9.58
2019-05-16T02:45:11.577Z,9.57
2019-05-16T02:47:42.523Z,9.56
2019-05-16T02:50:12.299Z,9.54
2019-05-16T02:52:41.345Z,9.53
2019-05-16T02:55:13.026Z,9.52
2019-05-16T02:57:41.962Z,9.50
2019-05-16T03:00:12.777Z,9.50
2019-05-16T03:02:42.394Z,9.49
2019-05-16T03:05:12.173Z,9.47
2019-05-16T03:07:47.063Z,9.45
2019-05-16T03:10:14.343Z,9.44
2019-05-16T03:12:43.892Z,9.40
2019-05-16T03:15:12.708Z,9.39
2019-05-16T03:17:50.779Z,9.37
2019-05-16T03:20:21.316Z,9.34
2019-05-16T03:22:51.990Z,9.33
2019-05-16T03:25:22.173Z,9.33
2019-05-16T03:27:51.276Z,9.31
2019-05-16T03:30:23.697Z,9.29
2019-05-16T03:32:54.684Z,9.30
2019-05-16T03:35:25.198Z,9.28
2019-05-16T03:37:59.682Z,9.28
2019-05-16T03:40:25.583Z,9.29
2019-05-16T03:42:55.654Z,9.30
2019-05-16T03:45:24.042Z,9.30
2019-05-16T03:47:52.421Z,9.31
2019-05-16T03:50:23.882Z,9.32
2019-05-16T03:52:54.632Z,9.34
2019-05-16T03:55:22.526Z,9.35
2019-05-16T03:57:53.737Z,9.35
2019-05-16T04:00:25.126Z,9.37
2019-05-16T04:02:53.484Z,9.38
2019-05-16T04:05:22.002Z,9.42
2019-05-16T04:08:09.990Z,9.46
2019-05-16T04:10:22.034Z,9.47
2019-05-16T04:12:51.329Z,9.50
2019-05-16T04:15:21.471Z,9.53
2019-05-16T04:17:51.333Z,9.56
2019-05-16T04:20:21.479Z,9.58
2019-05-16T04:22:51.253Z,9.62
2019-05-16T04:25:21.615Z,9.66
2019-05-16T04:27:52.843Z,9.72
2019-05-16T04:30:22.136Z,9.76
2019-05-16T04:32:51.259Z,9.83
2019-05-16T04:35:21.526Z,9.89
2019-05-16T04:37:51.257Z,9.95
2019-05-16T04:40:22.119Z,10.02
2019-05-16T04:42:51.441Z,10.09
2019-05-16T04:45:21.143Z,10.15
2019-05-16T04:47:51.224Z,10.20
2019-05-16T04:50:21.071Z,10.25
2019-05-16T04:52:51.787Z,10.28
2019-05-16T04:55:21.115Z,10.32
2019-05-16T04:57:51.218Z,10.35
2019-05-16T05:00:21.158Z,10.39
2019-05-16T05:02:51.842Z,10.44
2019-05-16T05:05:21.537Z,10.47
2019-05-16T05:07:51.625Z,10.51
2019-05-16T05:10:20.823Z,10.56
2019-05-16T05:12:51.833Z,10.59
2019-05-16T05:15:21.298Z,10.63
2019-05-16T05:17:50.415Z,10.65
2019-05-16T05:20:21.077Z,10.67
2019-05-16T05:22:49.968Z,10.70
2019-05-16T05:25:20.566Z,10.74
2019-05-16T05:27:50.081Z,10.78
2019-05-16T05:30:20.246Z,10.83
2019-05-16T05:32:50.350Z,10.90
2019-05-16T05:35:20.586Z,10.93
2019-05-16T05:37:50.861Z,11.02
2019-05-16T05:40:20.087Z,11.10
2019-05-16T05:42:50.509Z,11.18
2019-05-16T05:45:20.139Z,11.24
2019-05-16T05:47:50.565Z,11.32
2019-05-16T05:50:20.190Z,11.39
2019-05-16T05:52:51.165Z,11.39
2019-05-16T05:55:20.107Z,11.48
2019-05-16T05:57:50.724Z,11.58
2019-05-16T06:00:21.074Z,11.65
2019-05-16T06:02:50.797Z,11.74
2019-05-16T06:05:20.195Z,11.89
2019-05-16T06:07:50.925Z,11.89
2019-05-16T06:10:19.998Z,12.11
2019-05-16T06:12:50.064Z,12.25
2019-05-16T06:15:20.270Z,12.33
2019-05-16T06:17:50.922Z,12.43
2019-05-16T06:20:20.356Z,12.53
2019-05-16T06:22:50.927Z,12.45
2019-05-16T06:25:22.923Z,12.46
2019-05-16T06:27:51.156Z,12.54
2019-05-16T06:30:21.325Z,12.59
2019-05-16T06:32:51.295Z,12.69
2019-05-16T06:35:20.604Z,12.83
2019-05-16T06:37:51.541Z,12.93
2019-05-16T06:40:20.428Z,13.11
2019-05-16T06:42:50.989Z,13.08
2019-05-16T06:45:20.540Z,13.26
2019-05-16T06:47:50.386Z,13.31
2019-05-16T06:50:20.805Z,13.46
2019-05-16T06:52:50.192Z,13.66
2019-05-16T06:55:20.466Z,13.82
2019-05-16T06:57:50.329Z,13.96
2019-05-16T07:00:21.179Z,14.06
2019-05-16T07:02:50.317Z,14.09
2019-05-16T07:05:20.775Z,14.23
2019-05-16T07:07:50.951Z,14.35
2019-05-16T07:10:20.326Z,14.58
2019-05-16T07:12:50.419Z,14.77
2019-05-16T07:15:20.706Z,14.81
2019-05-16T07:17:50.710Z,15.08
2019-05-16T07:20:21.070Z,14.91
2019-05-16T07:22:50.444Z,14.90
2019-05-16T07:25:20.855Z,15.01
2019-05-16T07:27:50.959Z,15.12
2019-05-16T07:30:21.415Z,15.09
2019-05-16T07:32:50.151Z,15.26
2019-05-16T07:35:22.527Z,15.45
2019-05-16T07:37:51.473Z,15.76
2019-05-16T07:40:26.478Z,16.08
2019-05-16T07:42:50.951Z,16.19
2019-05-16T07:45:20.379Z,16.09
2019-05-16T07:47:51.225Z,15.72
2019-05-16T07:50:20.365Z,15.47
2019-05-16T07:52:51.609Z,15.38
2019-05-16T07:55:24.303Z,15.45
2019-05-16T07:57:52.665Z,15.59
2019-05-16T08:00:41.968Z,15.59
2019-05-16T08:02:52.966Z,15.73
2019-05-16T08:05:22.931Z,15.99
2019-05-16T08:07:51.554Z,16.13
2019-05-16T08:10:35.835Z,16.26
2019-05-16T08:12:51.757Z,16.51
2019-05-16T08:15:21.428Z,16.37
2019-05-16T08:17:51.132Z,16.43
2019-05-16T08:20:21.300Z,16.33
2019-05-16T08:22:50.909Z,16.50
2019-05-16T08:25:20.528Z,16.88
2019-05-16T08:27:52.062Z,17.37
2019-05-16T08:30:21.070Z,17.64
2019-05-16T08:32:52.753Z,18.13
2019-05-16T08:35:21.118Z,18.60
2019-05-16T08:37:51.529Z,18.49
2019-05-16T08:40:21.581Z,18.47
2019-05-16T08:45:21.367Z,18.14
2019-05-16T08:47:52.524Z,18.34
2019-05-16T08:50:21.717Z,18.36
2019-05-16T08:52:53.130Z,18.31
2019-05-16T08:55:21.995Z,18.31
2019-05-16T08:57:52.911Z,18.09
2019-05-16T09:00:21.926Z,17.68
2019-05-16T09:02:52.385Z,17.63
2019-05-16T09:05:22.893Z,17.41
2019-05-16T09:08:00.220Z,17.36
2019-05-16T09:10:34.820Z,18.24
2019-05-16T09:12:51.316Z,17.92
2019-05-16T09:15:21.573Z,18.00
2019-05-16T09:17:50.061Z,18.46
2019-05-16T09:20:18.503Z,18.92
2019-05-16T09:22:48.187Z,18.74
2019-05-16T09:25:18.763Z,18.53
2019-05-16T09:27:47.364Z,18.29
2019-05-16T09:30:23.274Z,18.31
2019-05-16T09:32:48.184Z,18.46
2019-05-16T09:35:17.621Z,18.49
2019-05-16T09:37:47.395Z,18.29
2019-05-16T09:40:17.633Z,18.14
2019-05-16T09:42:47.337Z,17.80
2019-05-16T09:45:17.391Z,17.83
2019-05-16T09:47:48.483Z,18.06
2019-05-16T09:50:18.281Z,17.98
2019-05-16T09:52:47.362Z,17.90
2019-05-16T09:55:17.511Z,18.09
2019-05-16T09:57:48.045Z,18.54
2019-05-16T10:00:21.973Z,19.12
2019-05-16T10:02:50.453Z,19.13
2019-05-16T10:05:20.882Z,19.21
2019-05-16T10:07:49.413Z,19.22
2019-05-16T10:10:18.202Z,19.26
2019-05-16T10:12:48.292Z,19.25
2019-05-16T10:15:18.556Z,19.00
2019-05-16T10:17:47.727Z,19.10
2019-05-16T10:20:17.524Z,19.57
2019-05-16T10:22:50.558Z,19.94
2019-05-16T10:25:19.658Z,19.95
2019-05-16T10:27:48.389Z,20.05
2019-05-16T10:30:19.879Z,20.09
2019-05-16T10:32:48.337Z,19.99
2019-05-16T10:35:17.770Z,20.22
2019-05-16T10:37:47.038Z,20.61
2019-05-16T10:40:18.196Z,21.17
2019-05-16T10:42:47.428Z,21.47
2019-05-16T10:45:16.941Z,21.52
2019-05-16T10:47:47.803Z,21.18
2019-05-16T10:50:17.715Z,21.16
2019-05-16T10:53:06.999Z,21.14
2019-05-16T10:55:18.597Z,20.76
2019-05-16T10:57:47.769Z,20.60
2019-05-16T11:00:39.584Z,20.24
2019-05-16T11:02:48.332Z,19.90
2019-05-16T11:05:28.957Z,19.30
2019-05-16T11:07:48.509Z,19.12
2019-05-16T11:10:17.251Z,18.96
2019-05-16T11:12:51.207Z,18.97
2019-05-16T11:15:17.210Z,19.24
2019-05-16T11:17:46.159Z,19.46
2019-05-16T11:20:19.633Z,19.70
2019-05-16T11:22:47.721Z,19.84
2019-05-16T11:25:28.047Z,20.06
2019-05-16T11:27:46.997Z,20.08
2019-05-16T11:30:18.284Z,20.27
2019-05-16T11:32:48.130Z,20.55
2019-05-16T11:35:17.324Z,20.80
2019-05-16T11:37:47.275Z,20.86
2019-05-16T11:40:18.175Z,20.83
2019-05-16T11:42:48.781Z,21.00
2019-05-16T11:45:17.040Z,20.65
2019-05-16T11:47:47.026Z,20.77
2019-05-16T11:50:17.542Z,20.72
2019-05-16T11:52:47.709Z,20.47
2019-05-16T11:55:16.367Z,20.20
2019-05-16T11:57:47.363Z,19.93
2019-05-16T12:00:17.957Z,19.84
2019-05-16T12:02:47.797Z,19.85
2019-05-16T12:05:19.378Z,19.98
2019-05-16T12:07:49.267Z,19.96
2019-05-16T12:10:18.873Z,20.02
2019-05-16T12:12:47.240Z,20.07
2019-05-16T12:15:19.985Z,19.99
2019-05-16T12:18:00.320Z,19.94
2019-05-16T12:20:17.415Z,20.13
2019-05-16T12:22:47.122Z,20.11
2019-05-16T12:25:16.799Z,19.57
2019-05-16T12:27:47.899Z,19.18
2019-05-16T12:30:17.650Z,19.44
2019-05-16T12:32:47.205Z,20.11
2019-05-16T12:35:17.633Z,20.62
2019-05-16T12:37:47.984Z,21.02
2019-05-16T12:40:16.081Z,21.27
2019-05-16T12:42:46.977Z,21.08
2019-05-16T12:45:14.873Z,20.87
2019-05-16T12:47:43.272Z,20.99
2019-05-16T12:50:13.143Z,20.92
2019-05-16T12:52:41.748Z,20.78
2019-05-16T12:55:11.188Z,21.15
2019-05-16T12:57:39.576Z,21.82
2019-05-16T13:00:15.023Z,21.88
2019-05-16T13:02:41.130Z,21.39
2019-05-16T13:05:10.381Z,21.10
2019-05-16T13:07:39.071Z,20.85
2019-05-16T13:10:09.391Z,20.80
2019-05-16T13:12:38.106Z,20.82
2019-05-16T13:15:07.985Z,20.72
2019-05-16T13:17:37.467Z,20.65
2019-05-16T13:20:08.197Z,20.45
2019-05-16T13:22:38.321Z,20.38
2019-05-16T13:25:10.283Z,20.23
2019-05-16T13:27:38.768Z,20.12
2019-05-16T13:30:09.507Z,20.12
2019-05-16T13:32:37.930Z,20.24
2019-05-16T13:35:07.973Z,20.28
2019-05-16T13:37:36.476Z,20.17
2019-05-16T13:40:07.980Z,19.99
2019-05-16T13:42:37.287Z,20.06
2019-05-16T13:45:10.490Z,20.10
2019-05-16T13:47:39.052Z,20.10
2019-05-16T13:50:12.169Z,20.01
2019-05-16T13:52:38.675Z,20.13
2019-05-16T13:55:09.064Z,20.08
2019-05-16T13:57:37.765Z,20.02
2019-05-16T14:00:11.460Z,19.92
2019-05-16T14:02:39.923Z,19.85
2019-05-16T14:05:09.084Z,20.18
2019-05-16T14:07:37.940Z,20.31
2019-05-16T14:10:10.367Z,20.09
2019-05-16T14:12:38.933Z,19.80
2019-05-16T14:15:08.513Z,19.56
2019-05-16T14:17:37.327Z,19.58
2019-05-16T14:20:14.706Z,19.77
2019-05-16T14:22:37.985Z,19.89
2019-05-16T14:25:07.617Z,20.32
2019-05-16T14:27:38.113Z,20.61
2019-05-16T14:30:10.418Z,20.62
2019-05-16T14:32:42.343Z,20.46
2019-05-16T14:35:09.399Z,20.28
2019-05-16T14:37:38.299Z,20.00
2019-05-16T14:40:09.127Z,19.85
2019-05-16T14:42:38.619Z,19.86
2019-05-16T14:45:12.619Z,19.63
2019-05-16T14:47:40.231Z,19.44
2019-05-16T14:50:13.134Z,19.35
2019-05-16T14:52:39.395Z,19.53
2019-05-16T14:55:07.919Z,19.63
2019-05-16T14:57:40.225Z,19.68
2019-05-16T15:00:09.547Z,19.81
2019-05-16T15:02:38.750Z,19.73
2019-05-16T15:05:09.245Z,19.62
2019-05-16T15:07:37.862Z,19.72
2019-05-16T15:10:07.838Z,19.80
2019-05-16T15:12:37.944Z,19.80
2019-05-16T15:15:20.343Z,19.60
2019-05-16T15:17:38.446Z,19.53
2019-05-16T15:20:08.973Z,19.52
2019-05-16T15:22:38.323Z,19.67
2019-05-16T15:25:08.166Z,20.00
2019-05-16T15:27:37.248Z,20.31
2019-05-16T15:30:10.802Z,20.46
2019-05-16T15:32:41.954Z,20.46
2019-05-16T15:35:12.090Z,20.37
2019-05-16T15:37:40.694Z,20.38
2019-05-16T15:40:10.117Z,20.24
2019-05-16T15:42:38.778Z,19.91
2019-05-16T15:45:08.151Z,19.68
2019-05-16T15:47:38.276Z,19.41
2019-05-16T15:50:13.945Z,19.14
2019-05-16T15:52:44.555Z,19.00
2019-05-16T15:55:13.523Z,18.99
2019-05-16T15:57:42.101Z,18.89
2019-05-16T16:00:11.446Z,18.77
2019-05-16T16:02:40.017Z,18.67
2019-05-16T16:05:09.386Z,18.64
2019-05-16T16:07:38.331Z,18.69
2019-05-16T16:10:08.261Z,18.67
2019-05-16T16:12:37.795Z,18.62
2019-05-16T16:15:12.979Z,18.47
2019-05-16T16:17:41.381Z,18.41
2019-05-16T16:20:10.577Z,18.44
2019-05-16T16:22:39.401Z,18.45
2019-05-16T16:25:11.530Z,18.47
2019-05-16T16:27:39.900Z,18.40
2019-05-16T16:30:08.737Z,18.33
2019-05-16T16:32:38.176Z,18.15
2019-05-16T16:35:07.911Z,17.91
2019-05-16T16:37:37.679Z,17.88
2019-05-16T16:40:11.142Z,17.77
2019-05-16T16:42:37.819Z,17.73
2019-05-16T16:45:08.104Z,17.73
2019-05-16T16:47:37.761Z,17.77
2019-05-16T16:50:08.162Z,17.60
2019-05-16T16:52:37.904Z,17.49
2019-05-16T16:55:07.910Z,17.38
2019-05-16T16:57:38.303Z,17.36
2019-05-16T17:00:12.442Z,17.25
2019-05-16T17:02:40.976Z,17.18
2019-05-16T17:05:12.491Z,17.09
2019-05-16T17:07:43.109Z,16.99
2019-05-16T17:10:11.726Z,16.81
2019-05-16T17:12:42.250Z,16.68
2019-05-16T17:15:10.709Z,16.65
2019-05-16T17:17:39.121Z,16.64
2019-05-16T17:20:09.438Z,16.60
2019-05-16T17:22:38.251Z,16.55
2019-05-16T17:25:09.974Z,16.44
2019-05-16T17:27:38.467Z,16.36
2019-05-16T17:30:12.819Z,16.32
2019-05-16T17:32:41.236Z,16.25
2019-05-16T17:35:10.174Z,16.16
2019-05-16T17:37:40.069Z,16.08
2019-05-16T17:40:08.518Z,16.04
2019-05-16T17:42:37.368Z,16.03
2019-05-16T17:45:07.319Z,15.95
2019-05-16T17:47:37.012Z,15.90
2019-05-16T17:50:08.506Z,15.84
2019-05-16T17:52:39.734Z,15.76
2019-05-16T17:55:11.897Z,15.68
2019-05-16T17:57:40.281Z,15.62
2019-05-16T18:00:12.951Z,15.57
2019-05-16T18:02:40.584Z,15.52
2019-05-16T18:05:10.127Z,15.48
2019-05-16T18:07:38.619Z,15.42
2019-05-16T18:10:12.226Z,15.39
2019-05-16T18:12:43.759Z,15.37
2019-05-16T18:15:12.381Z,15.34
2019-05-16T18:17:42.969Z,15.33
2019-05-16T18:20:11.494Z,15.31
2019-05-16T18:22:39.876Z,15.30
2019-05-16T18:25:09.446Z,15.29
2019-05-16T18:27:37.886Z,15.28
2019-05-16T18:30:11.194Z,15.25
2019-05-16T18:32:39.589Z,15.20
2019-05-16T18:35:10.072Z,15.17
2019-05-16T18:37:38.597Z,15.11
2019-05-16T18:40:08.782Z,15.06
2019-05-16T18:42:37.185Z,15.00
2019-05-16T18:45:07.631Z,14.95
2019-05-16T18:47:37.791Z,14.87
2019-05-16T18:50:08.334Z,14.77
2019-05-16T18:52:37.553Z,14.77
2019-05-16T18:55:08.394Z,14.73
2019-05-16T18:57:38.673Z,14.70
2019-05-16T19:00:10.864Z,14.67
2019-05-16T19:02:38.965Z,14.63
2019-05-16T19:05:10.025Z,14.59
2019-05-16T19:07:38.405Z,14.55
2019-05-16T19:10:07.637Z,14.51
2019-05-16T19:12:37.925Z,14.49
2019-05-16T19:15:08.726Z,14.46
2019-05-16T19:17:38.814Z,14.42
2019-05-16T19:20:09.321Z,14.38
2019-05-16T19:22:37.752Z,14.36
2019-05-16T19:25:07.843Z,14.31
2019-05-16T19:27:37.062Z,14.28
2019-05-16T19:30:09.253Z,14.18
2019-05-16T19:32:39.584Z,14.18
2019-05-16T19:35:10.021Z,14.23
2019-05-16T19:37:40.764Z,14.22
2019-05-16T19:40:09.355Z,14.20
2019-05-16T19:42:39.300Z,14.17
2019-05-16T19:45:09.538Z,14.16
2019-05-16T19:47:42.307Z,14.14
2019-05-16T19:50:11.239Z,14.09
2019-05-16T19:52:39.930Z,14.07
2019-05-16T19:55:10.345Z,14.05
2019-05-16T19:57:38.699Z,14.00
2019-05-16T20:00:08.226Z,13.96
2019-05-16T20:02:39.783Z,13.94
2019-05-16T20:05:09.091Z,13.90
2019-05-16T20:07:37.602Z,13.88
2019-05-16T20:10:09.629Z,13.85
2019-05-16T20:12:38.160Z,13.81
2019-05-16T20:15:11.956Z,13.78
2019-05-16T20:17:52.124Z,13.74
2019-05-16T20:20:12.476Z,13.66
2019-05-16T20:22:40.820Z,13.61
2019-05-16T20:25:09.967Z,13.54
2019-05-16T20:27:38.352Z,13.47
2019-05-16T20:30:07.687Z,13.39
2019-05-16T20:32:37.133Z,13.32
2019-05-16T20:35:08.972Z,13.26
2019-05-16T20:37:37.912Z,13.19
2019-05-16T20:40:09.297Z,13.14
2019-05-16T20:42:37.142Z,13.10
2019-05-16T20:45:09.699Z,13.06
2019-05-16T20:47:38.159Z,13.03
2019-05-16T20:50:07.907Z,13.01
2019-05-16T20:52:37.916Z,12.97
2019-05-16T20:55:08.309Z,12.93
2019-05-16T20:57:37.552Z,12.90
2019-05-16T21:00:08.790Z,12.88
2019-05-16T21:02:38.063Z,12.88
2019-05-16T21:05:08.174Z,12.81
2019-05-16T21:07:38.206Z,12.76
2019-05-16T21:10:08.371Z,12.70
2019-05-16T21:12:40.054Z,12.68
2019-05-16T21:15:09.307Z,12.63
2019-05-16T21:17:37.672Z,12.64
2019-05-16T21:20:07.709Z,12.60
2019-05-16T21:22:38.186Z,12.57
2019-05-16T21:25:07.326Z,12.53
2019-05-16T21:27:37.883Z,12.50
2019-05-16T21:30:08.079Z,12.49
2019-05-16T21:32:36.843Z,12.48
2019-05-16T21:35:08.211Z,12.47
2019-05-16T21:37:37.456Z,12.46
2019-05-16T21:40:11.763Z,12.43
2019-05-16T21:42:40.263Z,12.39
2019-05-16T21:45:11.083Z,12.37
2019-05-16T21:47:39.737Z,12.34
2019-05-16T21:50:11.177Z,12.31
2019-05-16T21:52:39.546Z,12.28
2019-05-16T21:55:09.189Z,12.24
2019-05-16T21:57:37.980Z,12.22
2019-05-16T22:00:32.184Z,12.19
2019-05-16T22:03:02.099Z,12.17
2019-05-16T22:05:31.175Z,12.13
2019-05-16T22:07:59.657Z,12.10
2019-05-16T22:10:28.036Z,12.08
2019-05-16T22:12:57.243Z,12.07
2019-05-16T22:15:26.286Z,12.04
2019-05-16T22:17:56.619Z,12.01
2019-05-16T22:20:26.995Z,12.01
2019-05-16T22:22:57.442Z,11.99
2019-05-16T22:25:27.301Z,11.97
2019-05-16T22:27:57.579Z,11.93
2019-05-16T22:30:27.284Z,11.91
2019-05-16T22:32:56.015Z,11.92
2019-05-16T22:35:24.463Z,11.90
2019-05-16T22:37:56.466Z,11.85
2019-05-16T22:40:26.535Z,11.82
2019-05-16T22:42:57.621Z,11.78
2019-05-16T22:45:27.005Z,11.73
2019-05-16T22:47:55.870Z,11.68
2019-05-16T22:50:26.914Z,11.65
2019-05-16T22:52:56.793Z,11.63
2019-05-16T22:55:26.405Z,11.63
2019-05-16T22:57:56.455Z,11.62
2019-05-16T23:00:32.918Z,11.60
2019-05-16T23:03:01.305Z,11.57
2019-05-16T23:05:29.785Z,11.53
2019-05-16T23:08:05.815Z,11.50
2019-05-16T23:10:32.740Z,11.45
2019-05-16T23:13:01.136Z,11.41
2019-05-16T23:15:29.593Z,11.37
2019-05-16T23:17:58.000Z,11.34
2019-05-16T23:20:27.749Z,11.32
2019-05-16T23:22:56.546Z,11.33
2019-05-16T23:25:26.542Z,11.31
2019-05-16T23:27:56.650Z,11.33
2019-05-16T23:30:27.311Z,11.31
2019-05-16T23:32:56.292Z,11.32
2019-05-16T23:35:26.884Z,11.31
2019-05-16T23:37:56.979Z,11.29
2019-05-16T23:40:25.265Z,11.28
2019-05-16T23:42:56.900Z,11.24
2019-05-16T23:45:27.417Z,11.23
2019-05-16T23:47:56.411Z,11.19
2019-05-16T23:50:27.367Z,11.16
2019-05-16T23:52:56.344Z,11.10
2019-05-16T23:55:27.764Z,11.03
2019-05-16T23:57:57.178Z,10.97
